Indian Springs, Nevada Weather observations

Data are for observation ending at time listed.
 Day   Time    Ave.   Ave.  Ave.  Vector   Max.   Stn.    Total    Solar   Ave.  
  of    of     Air    Rel.  Wind   Wind    Wind   Baro.  Precip.   Rad.    Soil  
Year   Day     Temp.  Hum.  Speed  Dir.    Gust   Pres.                    Temp. 
2017   (PST)    F      %     mph   deg.    mph     mb.     in.     W/m2     F   
------------------------------------------------------------------------------
  35   21:00   46.7    64    1.3    19      2.4   905.8    0.00       0    52.4
  35   21:10   46.1    67    1.5   296      3.1   905.4    0.00       0    52.2
  35   21:20   45.0    71    1.9   241      3.7   905.6    0.00       0    52.1
  35   21:30   45.1    70    1.3   226      2.0   905.6    0.00       0    52.0
  35   21:40   45.8    68    2.1   238      3.1   905.8    0.00       0    51.8
  35   21:50   46.2    67    1.4   261      3.4   905.7    0.00       0    51.7
  35   22:00   45.0    70    2.8   243      3.7   905.7    0.00       0    51.5
  35   22:10   44.8    70    3.7   244      6.0   905.8    0.00       0    51.4
  35   22:20   45.6    69    3.8   241      5.8   906.2    0.00       0    51.2
  35   22:30   45.6    69    3.1   239      4.7   905.9    0.00       0    51.1
  35   22:40   44.9    71    2.4   227      4.4   906.0    0.00       0    51.0
  35   22:50   44.8    71    0.9   230      2.6   906.2    0.00       0    50.9
  35   23:00   46.5    66    2.5   241      3.9   906.1    0.00       0    50.8
  35   23:10   46.6    65    1.4   187      4.3   906.1    0.00       0    50.6
  35   23:20   45.0    68    0.4    15      2.0   906.0    0.00       0    50.5
  35   23:30   43.7    71    1.1    20      2.1   906.1    0.00       0    50.4
  35   23:40   42.9    74    0.2    12      1.2   906.1    0.00       0    50.3
  35   23:50   42.3    75    0.2   160      1.1   906.0    0.00       0    50.2
  36    0:00   41.7    76    0.3    97      1.2   905.8    0.00       0    50.1
  36    0:10   41.3    78    0.1    99      0.9   905.7    0.00       0    50.0
  36    0:20   41.3    79    0.3    75      1.2   905.6    0.00       0    49.9
  36    0:30   41.1    79    0.0     0      0.0   905.5    0.00       0    49.8
  36    0:40   41.5    79    0.0     0      0.0   905.5    0.00       0    49.7
  36    0:50   41.2    79    0.0     0      0.0   905.3    0.00       0    49.6
  36    1:00   40.9    79    0.0     0      0.0   905.3    0.00       0    49.5
  36    1:10   40.7    80    0.0   303      0.6   905.4    0.00       0    49.4
  36    1:20   40.8    80    0.2   297      1.0   905.4    0.00       0    49.3
  36    1:30   40.3    80    0.0   189      0.7   905.3    0.00       0    49.2
  36    1:40   40.4    81    0.5   206      1.5   905.5    0.00       0    49.1
  36    1:50   39.8    81    0.2   208      1.1   905.5    0.00       0    49.0
  36    2:00   39.3    82    0.0     0      0.0   905.6    0.00       0    48.9
  36    2:10   39.1    83    0.0     0      0.0   905.3    0.00       0    48.8
  36    2:20   39.0    83    0.2   163      1.2   905.1    0.00       0    48.7
  36    2:30   39.5    83    0.0     0      0.0   905.0    0.00       0    48.5
  36    2:40   39.6    83    0.1   177      0.9   904.8    0.00       0    48.4
  36    2:50   39.4    82    0.1    66      1.5   904.9    0.00       0    48.3
  36    3:00   39.1    83    1.2   298      2.6   904.9    0.00       0    48.2
  36    3:10   38.9    83    1.1   235      2.1   904.9    0.00       0    48.1
  36    3:20   38.7    84    0.1   236      0.9   904.7    0.00       0    48.0
  36    3:30   38.3    84    0.0     0      0.0   904.6    0.00       0    47.9
  36    3:40   37.7    85    0.0     0      0.0   904.4    0.00       0    47.8
  36    3:50   37.6    85    0.2   186      0.9   904.2    0.00       0    47.7
  36    4:00   37.5    86    0.0   186      0.4   903.8    0.00       0    47.6
  36    4:10   38.4    86    0.4   232      1.3   904.4    0.00       0    47.5
  36    4:20   38.3    84    0.7   283      1.7   904.0    0.00       0    47.4
  36    4:30   37.4    85    1.3   226      1.8   904.1    0.00       0    47.3
  36    4:40   37.2    86    0.2   217      1.5   904.2    0.00       0    47.2
  36    4:50   36.9    86    0.0     0      0.0   904.4    0.00       0    47.1
  36    5:00   36.6    87    0.0     0      0.0   904.4    0.00       0    47.0
  36    5:10   36.2    87    0.0     0      0.0   904.1    0.00       0    46.9
  36    5:20   36.3    88    0.4   184      1.4   904.0    0.00       0    46.8
  36    5:30   36.5    88    0.3    26      2.3   904.2    0.00       0    46.7
  36    5:40   36.8    88    0.4   269      1.3   904.3    0.00       0    46.6
  36    5:50   36.8    87    0.8   248      1.5   904.4    0.00       0    46.5
  36    6:00   36.3    87    1.1   250      2.8   904.6    0.00       0    46.4
  36    6:10   36.4    87    1.0   281      2.4   904.7    0.00       0    46.3
  36    6:20   36.5    87    0.0     0      0.0   904.4    0.00       0    46.2
  36    6:30   35.7    87    0.0     0      0.0   904.5    0.00       1    46.1
  36    6:40   35.3    88    0.0     0      0.0   904.6    0.00       7    46.0
  36    6:50   35.4    88    0.1   194      0.9   904.6    0.00      14    45.9
  36    7:00   36.2    89    0.2   194      1.0   904.8    0.00      28    45.9
  36    7:10   37.4    88    0.1   194      0.8   904.8    0.00      33    45.8
  36    7:20   38.0    86    0.0    90      0.7   904.9    0.00      54    45.7
  36    7:30   39.0    85    0.4    29      2.0   905.0    0.00     115    45.6
  36    7:40   39.1    83    0.6    21      1.8   905.1    0.00     189    45.6
  36    7:50   40.0    81    1.1   349      2.2   905.6    0.00     104    45.5
  36    8:00   39.0    81    1.6   312      2.8   905.7    0.00      91    45.5
  36    8:10   38.9    82    1.3   298      2.3   906.3    0.00     108    45.4
  36    8:20   39.4    82    1.0   262      2.1   906.9    0.00     109    45.4
  36    8:30   40.5    81    1.0   250      2.0   907.6    0.00     171    45.5
  36    8:40   41.8    80    1.1   308      2.2   908.5    0.00     201    45.5
  36    8:50   42.9    78    0.7   281      1.7   909.6    0.00     202    45.4
  36    9:00   43.6    75    1.6   246      3.2   910.6    0.00     280    45.5
  36    9:10   45.1    71    0.8   256      2.2   910.3    0.00     346    45.5
  36    9:20   47.6    66    0.4    28      1.8   910.7    0.00     287    45.6
  36    9:30   49.2    62    0.7   336      2.0   911.6    0.00     439    45.7
  36    9:40   48.9    62    1.7    16      3.3   910.5    0.00     443    45.9
  36    9:50   48.6    62    1.9    26      4.1   910.2    0.00     162    46.1
  36   10:00   48.7    62    1.7    15      3.4   910.1    0.00     200    46.3
  36   10:10   49.7    60    1.0    34      2.3   910.1    0.00     231    46.6
  36   10:20   50.1    59    1.8    14      3.1   909.9    0.00     205    46.8
  36   10:30   50.5    58    1.5     7      3.1   909.5    0.00     261    47.1
  36   10:40   50.9    57    1.4    40      2.9   909.6    0.00     196    47.4
  36   10:50   51.6    55    2.1    21      4.1   909.3    0.00     213    47.6
  36   11:00   52.2    54    2.4    12      4.8   909.0    0.00     200    47.8
  36   11:10   52.4    54    2.4     2      4.3   908.8    0.00     249    48.0
  36   11:20   52.8    54    2.0    25      4.2   908.6    0.00     259    48.2
  36   11:30   53.7    52    2.0     7      4.5   908.4    0.00     247    48.3
  36   11:40   54.2    51    1.8    52      4.9   908.1    0.00     286    48.5
  36   11:50   54.7    50    2.4     9      4.8   907.7    0.00     327    48.7
  36   12:00   54.9    50    2.5    34      8.8   907.4    0.00     383    48.8
  36   12:10   55.5    48    2.3    90      6.9   907.1    0.00     343    49.0
  36   12:20   55.3    48    2.7    72      4.7   906.9    0.00     334    49.2
  36   12:30   56.3    47    2.6    76      6.1   907.6    0.00     516    49.4
  36   12:40   56.7    46    3.2    68      7.2   907.4    0.00     511    49.6
  36   12:50   57.8    44    2.0    60      5.5   908.0    0.00     509    49.8
  36   13:00   58.5    40    4.0    68      8.3   905.7    0.00     444    50.0
  36   13:10   58.5    40    3.7    86     10.3   905.3    0.00     378    50.2
  36   13:20   58.7    40    3.8    97     10.3   904.9    0.00     329    50.5
  36   13:30   58.7    40    4.5    88      9.1   904.6    0.00     320    50.7
  36   13:40   58.7    40    5.5    93     12.1   904.1    0.00     385    51.0
  36   13:50   58.9    39    4.5   101     10.7   904.2    0.00     387    51.2
  36   14:00   59.6    39    4.3    96      9.8   904.2    0.00     435    51.4
  36   14:10   60.4    38    4.0    80      7.2   904.0    0.00     463    51.6
  36   14:20   60.3    38    3.4    75      7.5   904.1    0.00     306    51.8
  36   14:30   60.0    39    2.2    98      5.2   904.0    0.00     260    52.0
  36   14:40   59.8    39    2.2   132      5.6   904.1    0.00     319    52.2
  36   14:50   60.1    40    5.9    94     12.9   903.8    0.00     354    52.4
  36   15:00   59.3    41    5.0   104     11.2   903.8    0.00     195    52.6
  36   15:10   59.5    40    4.7   106      8.9   903.7    0.00     284    52.8
  36   15:20   59.9    39    4.4    87     10.8   903.6    0.00     252    53.0
  36   15:30   59.1    39    3.5    96      7.9   903.5    0.00     106    53.1
  36   15:40   58.8    40    3.3    94      7.9   903.3    0.00     101    53.2
  36   15:50   58.8    40    4.3    97     10.2   903.2    0.00     168    53.3
  36   16:00   58.7    42    5.2   104     11.2   903.0    0.00     131    53.4
  36   16:10   58.5    42    4.6   106     11.9   902.8    0.00      85    53.5
  36   16:20   58.7    40    1.9   124      7.5   902.9    0.00      87    53.5
  36   16:30   58.4    41    3.2   113      9.1   902.8    0.00      65    53.5
  36   16:40   57.7    43    1.7   121      7.2   902.6    0.00      47    53.6
  36   16:50   56.9    45    2.1   120      5.8   902.8    0.00      32    53.6
  36   17:00   56.2    46    1.9   124      6.9   902.5    0.00      18    53.6
  36   17:10   55.7    46    2.4   114      6.1   902.3    0.00      10    53.5
  36   17:20   55.1    48    3.5   105      7.7   902.0    0.00       2    53.5
  36   17:30   54.6    49    3.2   110      6.6   901.8    0.00       0    53.5
  36   17:40   54.2    50    1.8   115      4.5   901.7    0.00       0    53.4
  36   17:50   53.9    50    1.7   113      4.7   901.8    0.00       0    53.3
  36   18:00   53.8    50    2.1   113      4.6   901.3    0.00       0    53.3
  36   18:10   53.5    51    2.2   106      5.3   901.3    0.00       0    53.2
  36   18:20   53.2    52    1.0    75      2.6   901.2    0.00       0    53.1
  36   18:30   52.5    54    1.6    52      3.1   901.4    0.00       0    53.0
  36   18:40   51.7    55    2.7    94      4.5   901.0    0.00       0    52.9
  36   18:50   51.3    56    1.8    98      3.4   901.0    0.00       0    52.8
  36   19:00   50.6    58    2.8    82      6.4   901.0    0.00       0    52.7
  36   19:10   50.6    58    2.9   100      5.9   900.9    0.00       0    52.6
  36   19:20   50.4    58    1.1   132      3.1   901.0    0.00       0    52.5
  36   19:30   50.5    58    2.3    96      3.7   900.8    0.00       0    52.4
  36   19:40   50.6    57    5.1   101      8.7   900.6    0.00       0    52.2
  36   19:50   51.6    56    2.1   208      6.3   900.6    0.00       0    52.1
  36   20:00   51.9    54    2.0    89      6.1   900.6    0.00       0    52.1
  36   20:10   51.0    56    1.7    89      3.3   900.6    0.00       0    51.9
  36   20:20   50.0    58    1.5   216      3.1   900.6    0.00       0    51.9
  36   20:30   49.0    62    1.2   287      3.6   900.5    0.00       0    51.7
  36   20:40   49.2    61    1.3   278      5.1   900.3    0.00       0    51.7
  36   20:50   48.9    61    1.4   317      3.6   900.1    0.00       0    51.5

Return to Indian Springs, Nevada graphs page.


Western Regional Climate Center,wrcc@dri.edu